sensor_id;sensor_type;location;lat;lon;timestamp;P1;durP1;ratioP1;P2;durP2;ratioP2
56893;SDS011;43392;50.078;13.704;2022-10-31T00:00:53;42.97;;;27.08;;
56893;SDS011;43392;50.078;13.704;2022-10-31T00:03:20;44.17;;;26.50;;
56893;SDS011;43392;50.078;13.704;2022-10-31T00:05:48;45.28;;;27.95;;
56893;SDS011;43392;50.078;13.704;2022-10-31T00:08:16;47.03;;;29.50;;
56893;SDS011;43392;50.078;13.704;2022-10-31T00:10:45;45.80;;;27.02;;
56893;SDS011;43392;50.078;13.704;2022-10-31T00:13:12;47.22;;;27.85;;
56893;SDS011;43392;50.078;13.704;2022-10-31T00:15:40;42.05;;;24.08;;
56893;SDS011;43392;50.078;13.704;2022-10-31T00:18:08;51.03;;;28.67;;
56893;SDS011;43392;50.078;13.704;2022-10-31T00:20:35;47.55;;;25.45;;
56893;SDS011;43392;50.078;13.704;2022-10-31T00:23:02;42.35;;;26.73;;
56893;SDS011;43392;50.078;13.704;2022-10-31T00:25:32;41.17;;;25.63;;
56893;SDS011;43392;50.078;13.704;2022-10-31T00:28:01;40.40;;;24.27;;
56893;SDS011;43392;50.078;13.704;2022-10-31T00:30:28;43.33;;;25.90;;
56893;SDS011;43392;50.078;13.704;2022-10-31T00:32:54;43.83;;;25.65;;
56893;SDS011;43392;50.078;13.704;2022-10-31T00:35:21;47.83;;;25.30;;
56893;SDS011;43392;50.078;13.704;2022-10-31T00:37:48;46.80;;;24.42;;
56893;SDS011;43392;50.078;13.704;2022-10-31T00:40:14;45.67;;;27.38;;
56893;SDS011;43392;50.078;13.704;2022-10-31T00:42:41;42.53;;;25.25;;
56893;SDS011;43392;50.078;13.704;2022-10-31T00:45:09;46.05;;;24.63;;
56893;SDS011;43392;50.078;13.704;2022-10-31T00:47:37;41.65;;;24.52;;
56893;SDS011;43392;50.078;13.704;2022-10-31T00:50:04;41.38;;;24.25;;
56893;SDS011;43392;50.078;13.704;2022-10-31T00:52:31;38.50;;;23.05;;
56893;SDS011;43392;50.078;13.704;2022-10-31T00:54:58;39.85;;;23.23;;
56893;SDS011;43392;50.078;13.704;2022-10-31T00:57:24;39.45;;;23.25;;
56893;SDS011;43392;50.078;13.704;2022-10-31T00:59:51;38.00;;;20.13;;
56893;SDS011;43392;50.078;13.704;2022-10-31T01:02:19;32.35;;;19.08;;
56893;SDS011;43392;50.078;13.704;2022-10-31T01:04:46;28.40;;;17.52;;
56893;SDS011;43392;50.078;13.704;2022-10-31T01:07:12;30.80;;;16.67;;
56893;SDS011;43392;50.078;13.704;2022-10-31T01:09:39;30.40;;;17.75;;
56893;SDS011;43392;50.078;13.704;2022-10-31T01:12:06;34.47;;;19.73;;
56893;SDS011;43392;50.078;13.704;2022-10-31T01:14:33;36.17;;;18.42;;
56893;SDS011;43392;50.078;13.704;2022-10-31T01:16:59;36.00;;;19.02;;
56893;SDS011;43392;50.078;13.704;2022-10-31T01:19:27;30.50;;;18.73;;
56893;SDS011;43392;50.078;13.704;2022-10-31T01:21:54;45.92;;;25.27;;
56893;SDS011;43392;50.078;13.704;2022-10-31T01:24:21;43.53;;;26.20;;
56893;SDS011;43392;50.078;13.704;2022-10-31T01:26:48;43.95;;;25.63;;
56893;SDS011;43392;50.078;13.704;2022-10-31T01:29:14;38.25;;;23.42;;
56893;SDS011;43392;50.078;13.704;2022-10-31T01:31:41;44.83;;;24.38;;
56893;SDS011;43392;50.078;13.704;2022-10-31T01:34:08;36.80;;;21.33;;
56893;SDS011;43392;50.078;13.704;2022-10-31T01:36:41;41.45;;;21.30;;
56893;SDS011;43392;50.078;13.704;2022-10-31T01:39:09;37.92;;;22.27;;
56893;SDS011;43392;50.078;13.704;2022-10-31T01:41:40;36.05;;;21.20;;
56893;SDS011;43392;50.078;13.704;2022-10-31T01:47:13;25.83;;;17.38;;
56893;SDS011;43392;50.078;13.704;2022-10-31T01:49:43;26.75;;;17.60;;
56893;SDS011;43392;50.078;13.704;2022-10-31T01:52:18;29.63;;;19.05;;
56893;SDS011;43392;50.078;13.704;2022-10-31T01:54:49;29.58;;;19.23;;
56893;SDS011;43392;50.078;13.704;2022-10-31T01:57:17;28.25;;;18.77;;
56893;SDS011;43392;50.078;13.704;2022-10-31T01:59:47;30.75;;;18.30;;
56893;SDS011;43392;50.078;13.704;2022-10-31T02:04:44;32.17;;;19.25;;
56893;SDS011;43392;50.078;13.704;2022-10-31T02:07:13;28.33;;;17.63;;
56893;SDS011;43392;50.078;13.704;2022-10-31T02:09:43;27.52;;;19.25;;
56893;SDS011;43392;50.078;13.704;2022-10-31T02:12:12;26.48;;;18.40;;
56893;SDS011;43392;50.078;13.704;2022-10-31T02:14:39;30.50;;;18.63;;
56893;SDS011;43392;50.078;13.704;2022-10-31T02:17:06;31.85;;;19.58;;
56893;SDS011;43392;50.078;13.704;2022-10-31T02:19:34;30.23;;;18.90;;
56893;SDS011;43392;50.078;13.704;2022-10-31T02:22:09;30.80;;;19.27;;
56893;SDS011;43392;50.078;13.704;2022-10-31T02:24:46;30.48;;;19.50;;
56893;SDS011;43392;50.078;13.704;2022-10-31T02:27:36;34.65;;;19.55;;
56893;SDS011;43392;50.078;13.704;2022-10-31T02:32:55;28.00;;;18.38;;
56893;SDS011;43392;50.078;13.704;2022-10-31T02:35:36;30.17;;;19.17;;
56893;SDS011;43392;50.078;13.704;2022-10-31T02:38:12;35.13;;;20.63;;
56893;SDS011;43392;50.078;13.704;2022-10-31T02:40:52;35.25;;;21.50;;
56893;SDS011;43392;50.078;13.704;2022-10-31T02:43:26;36.03;;;19.60;;
56893;SDS011;43392;50.078;13.704;2022-10-31T02:46:01;32.83;;;17.63;;
56893;SDS011;43392;50.078;13.704;2022-10-31T02:48:36;28.48;;;16.17;;
56893;SDS011;43392;50.078;13.704;2022-10-31T02:53:32;26.90;;;15.68;;
56893;SDS011;43392;50.078;13.704;2022-10-31T02:56:00;28.95;;;15.77;;
56893;SDS011;43392;50.078;13.704;2022-10-31T02:58:31;25.08;;;15.07;;
56893;SDS011;43392;50.078;13.704;2022-10-31T03:01:09;28.73;;;16.70;;
56893;SDS011;43392;50.078;13.704;2022-10-31T03:03:51;27.45;;;15.57;;
56893;SDS011;43392;50.078;13.704;2022-10-31T03:06:28;27.00;;;17.05;;
56893;SDS011;43392;50.078;13.704;2022-10-31T03:09:00;28.17;;;17.17;;
56893;SDS011;43392;50.078;13.704;2022-10-31T03:11:38;28.60;;;17.10;;
56893;SDS011;43392;50.078;13.704;2022-10-31T03:14:12;33.63;;;20.05;;
56893;SDS011;43392;50.078;13.704;2022-10-31T03:16:46;30.08;;;19.17;;
56893;SDS011;43392;50.078;13.704;2022-10-31T03:19:16;29.10;;;18.10;;
56893;SDS011;43392;50.078;13.704;2022-10-31T03:21:46;29.35;;;18.27;;
56893;SDS011;43392;50.078;13.704;2022-10-31T03:24:16;26.35;;;18.23;;
56893;SDS011;43392;50.078;13.704;2022-10-31T03:26:46;30.35;;;18.90;;
56893;SDS011;43392;50.078;13.704;2022-10-31T03:29:18;33.90;;;19.88;;
56893;SDS011;43392;50.078;13.704;2022-10-31T03:31:49;31.73;;;20.27;;
56893;SDS011;43392;50.078;13.704;2022-10-31T03:34:19;31.77;;;20.55;;
56893;SDS011;43392;50.078;13.704;2022-10-31T03:36:47;33.15;;;21.27;;
56893;SDS011;43392;50.078;13.704;2022-10-31T03:39:17;39.15;;;22.45;;
56893;SDS011;43392;50.078;13.704;2022-10-31T03:41:47;34.28;;;21.55;;
56893;SDS011;43392;50.078;13.704;2022-10-31T03:44:19;33.10;;;20.83;;
56893;SDS011;43392;50.078;13.704;2022-10-31T03:46:47;32.03;;;19.95;;
56893;SDS011;43392;50.078;13.704;2022-10-31T03:49:14;34.25;;;20.73;;
56893;SDS011;43392;50.078;13.704;2022-10-31T03:51:44;34.70;;;19.23;;
56893;SDS011;43392;50.078;13.704;2022-10-31T03:54:17;30.35;;;19.25;;
56893;SDS011;43392;50.078;13.704;2022-10-31T03:56:50;29.38;;;18.75;;
56893;SDS011;43392;50.078;13.704;2022-10-31T03:59:21;29.53;;;19.30;;
56893;SDS011;43392;50.078;13.704;2022-10-31T04:01:52;32.55;;;19.20;;
56893;SDS011;43392;50.078;13.704;2022-10-31T04:04:23;32.45;;;19.27;;
56893;SDS011;43392;50.078;13.704;2022-10-31T04:06:53;31.15;;;18.05;;
56893;SDS011;43392;50.078;13.704;2022-10-31T04:09:22;34.05;;;19.58;;
56893;SDS011;43392;50.078;13.704;2022-10-31T04:11:53;32.75;;;20.02;;
56893;SDS011;43392;50.078;13.704;2022-10-31T04:14:21;28.63;;;18.35;;
56893;SDS011;43392;50.078;13.704;2022-10-31T04:16:51;31.20;;;18.38;;
56893;SDS011;43392;50.078;13.704;2022-10-31T04:19:18;28.00;;;18.50;;
56893;SDS011;43392;50.078;13.704;2022-10-31T04:21:45;33.05;;;20.13;;
56893;SDS011;43392;50.078;13.704;2022-10-31T04:24:13;33.72;;;19.60;;
56893;SDS011;43392;50.078;13.704;2022-10-31T04:26:39;32.10;;;20.85;;
56893;SDS011;43392;50.078;13.704;2022-10-31T04:29:06;32.95;;;21.13;;
56893;SDS011;43392;50.078;13.704;2022-10-31T04:31:32;30.90;;;20.27;;
56893;SDS011;43392;50.078;13.704;2022-10-31T04:33:59;31.67;;;21.30;;
56893;SDS011;43392;50.078;13.704;2022-10-31T04:36:25;41.22;;;24.15;;
56893;SDS011;43392;50.078;13.704;2022-10-31T04:38:52;39.22;;;24.33;;
56893;SDS011;43392;50.078;13.704;2022-10-31T04:41:20;36.97;;;23.08;;
56893;SDS011;43392;50.078;13.704;2022-10-31T04:43:46;42.45;;;23.33;;
56893;SDS011;43392;50.078;13.704;2022-10-31T04:46:13;43.78;;;24.45;;
56893;SDS011;43392;50.078;13.704;2022-10-31T04:48:40;38.28;;;22.33;;
56893;SDS011;43392;50.078;13.704;2022-10-31T04:51:06;39.00;;;20.92;;
56893;SDS011;43392;50.078;13.704;2022-10-31T04:53:33;36.83;;;19.75;;
56893;SDS011;43392;50.078;13.704;2022-10-31T04:56:00;36.10;;;22.17;;
56893;SDS011;43392;50.078;13.704;2022-10-31T04:58:28;34.78;;;20.92;;
56893;SDS011;43392;50.078;13.704;2022-10-31T05:00:55;33.45;;;20.48;;
56893;SDS011;43392;50.078;13.704;2022-10-31T05:03:21;34.95;;;20.95;;
56893;SDS011;43392;50.078;13.704;2022-10-31T05:05:48;32.80;;;19.67;;
56893;SDS011;43392;50.078;13.704;2022-10-31T05:08:15;31.17;;;20.35;;
56893;SDS011;43392;50.078;13.704;2022-10-31T05:10:41;31.02;;;20.30;;
56893;SDS011;43392;50.078;13.704;2022-10-31T05:13:08;35.83;;;20.70;;
56893;SDS011;43392;50.078;13.704;2022-10-31T05:15:36;33.47;;;19.85;;
56893;SDS011;43392;50.078;13.704;2022-10-31T05:18:03;32.78;;;19.52;;
56893;SDS011;43392;50.078;13.704;2022-10-31T05:20:30;29.10;;;18.73;;
56893;SDS011;43392;50.078;13.704;2022-10-31T05:22:58;33.53;;;20.17;;
56893;SDS011;43392;50.078;13.704;2022-10-31T05:25:26;46.83;;;28.40;;
56893;SDS011;43392;50.078;13.704;2022-10-31T05:27:54;44.67;;;27.33;;
56893;SDS011;43392;50.078;13.704;2022-10-31T05:30:22;40.35;;;27.00;;
56893;SDS011;43392;50.078;13.704;2022-10-31T05:32:51;38.65;;;24.02;;
56893;SDS011;43392;50.078;13.704;2022-10-31T05:35:19;41.20;;;23.00;;
56893;SDS011;43392;50.078;13.704;2022-10-31T05:37:46;36.88;;;23.42;;
56893;SDS011;43392;50.078;13.704;2022-10-31T05:40:14;44.83;;;25.25;;
56893;SDS011;43392;50.078;13.704;2022-10-31T05:42:42;36.33;;;23.15;;
56893;SDS011;43392;50.078;13.704;2022-10-31T05:45:09;36.40;;;21.75;;
56893;SDS011;43392;50.078;13.704;2022-10-31T05:47:37;38.97;;;22.27;;
56893;SDS011;43392;50.078;13.704;2022-10-31T05:50:06;34.80;;;20.25;;
56893;SDS011;43392;50.078;13.704;2022-10-31T05:52:33;35.53;;;18.95;;
56893;SDS011;43392;50.078;13.704;2022-10-31T05:55:00;32.08;;;18.50;;
56893;SDS011;43392;50.078;13.704;2022-10-31T05:57:27;36.10;;;20.75;;
56893;SDS011;43392;50.078;13.704;2022-10-31T05:59:54;32.55;;;18.35;;
56893;SDS011;43392;50.078;13.704;2022-10-31T06:02:21;30.58;;;17.67;;
56893;SDS011;43392;50.078;13.704;2022-10-31T06:04:47;34.72;;;19.13;;
56893;SDS011;43392;50.078;13.704;2022-10-31T06:07:15;36.92;;;21.23;;
56893;SDS011;43392;50.078;13.704;2022-10-31T06:09:42;34.33;;;18.58;;
56893;SDS011;43392;50.078;13.704;2022-10-31T06:12:08;33.03;;;20.63;;
56893;SDS011;43392;50.078;13.704;2022-10-31T06:14:35;41.70;;;21.17;;
56893;SDS011;43392;50.078;13.704;2022-10-31T06:17:02;35.55;;;20.27;;
56893;SDS011;43392;50.078;13.704;2022-10-31T06:19:28;34.30;;;20.45;;
56893;SDS011;43392;50.078;13.704;2022-10-31T06:21:55;36.20;;;20.58;;
56893;SDS011;43392;50.078;13.704;2022-10-31T06:24:23;33.35;;;20.50;;
56893;SDS011;43392;50.078;13.704;2022-10-31T06:26:49;32.50;;;20.02;;
56893;SDS011;43392;50.078;13.704;2022-10-31T06:29:16;31.38;;;19.73;;
56893;SDS011;43392;50.078;13.704;2022-10-31T06:31:42;33.03;;;19.58;;
56893;SDS011;43392;50.078;13.704;2022-10-31T06:34:09;39.15;;;20.80;;
56893;SDS011;43392;50.078;13.704;2022-10-31T06:36:36;37.42;;;21.67;;
56893;SDS011;43392;50.078;13.704;2022-10-31T06:39:02;36.38;;;21.35;;
56893;SDS011;43392;50.078;13.704;2022-10-31T06:41:30;34.58;;;21.60;;
56893;SDS011;43392;50.078;13.704;2022-10-31T06:43:57;34.10;;;21.92;;
56893;SDS011;43392;50.078;13.704;2022-10-31T06:46:23;51.33;;;29.67;;
56893;SDS011;43392;50.078;13.704;2022-10-31T06:48:50;45.50;;;26.98;;
56893;SDS011;43392;50.078;13.704;2022-10-31T06:51:16;40.80;;;24.33;;
56893;SDS011;43392;50.078;13.704;2022-10-31T06:53:43;38.70;;;23.63;;
56893;SDS011;43392;50.078;13.704;2022-10-31T06:56:10;37.60;;;22.92;;
56893;SDS011;43392;50.078;13.704;2022-10-31T06:58:38;47.28;;;24.35;;
56893;SDS011;43392;50.078;13.704;2022-10-31T07:01:04;34.33;;;22.42;;
56893;SDS011;43392;50.078;13.704;2022-10-31T07:03:31;47.75;;;27.98;;
56893;SDS011;43392;50.078;13.704;2022-10-31T07:05:57;43.00;;;27.38;;
56893;SDS011;43392;50.078;13.704;2022-10-31T07:08:24;42.78;;;25.83;;
56893;SDS011;43392;50.078;13.704;2022-10-31T07:10:51;40.22;;;24.48;;
56893;SDS011;43392;50.078;13.704;2022-10-31T07:13:19;37.17;;;22.98;;
56893;SDS011;43392;50.078;13.704;2022-10-31T07:15:51;37.97;;;23.00;;
56893;SDS011;43392;50.078;13.704;2022-10-31T07:18:19;37.28;;;24.13;;
56893;SDS011;43392;50.078;13.704;2022-10-31T07:20:46;63.53;;;36.20;;
56893;SDS011;43392;50.078;13.704;2022-10-31T07:23:13;58.63;;;34.90;;
56893;SDS011;43392;50.078;13.704;2022-10-31T07:25:40;41.65;;;22.70;;
56893;SDS011;43392;50.078;13.704;2022-10-31T07:28:07;38.20;;;22.95;;
56893;SDS011;43392;50.078;13.704;2022-10-31T07:30:34;42.33;;;26.98;;
56893;SDS011;43392;50.078;13.704;2022-10-31T07:33:02;43.35;;;25.98;;
56893;SDS011;43392;50.078;13.704;2022-10-31T07:35:29;37.47;;;23.33;;
56893;SDS011;43392;50.078;13.704;2022-10-31T07:37:56;42.13;;;27.98;;
56893;SDS011;43392;50.078;13.704;2022-10-31T07:40:24;49.45;;;35.10;;
56893;SDS011;43392;50.078;13.704;2022-10-31T07:42:51;54.45;;;36.47;;
56893;SDS011;43392;50.078;13.704;2022-10-31T07:45:19;46.83;;;30.95;;
56893;SDS011;43392;50.078;13.704;2022-10-31T07:47:47;47.10;;;31.10;;
56893;SDS011;43392;50.078;13.704;2022-10-31T07:50:17;47.60;;;29.98;;
56893;SDS011;43392;50.078;13.704;2022-10-31T07:52:45;40.50;;;27.35;;
56893;SDS011;43392;50.078;13.704;2022-10-31T07:55:12;41.83;;;29.02;;
56893;SDS011;43392;50.078;13.704;2022-10-31T07:57:40;42.30;;;26.00;;
56893;SDS011;43392;50.078;13.704;2022-10-31T08:00:08;44.15;;;26.45;;
56893;SDS011;43392;50.078;13.704;2022-10-31T08:02:36;42.97;;;25.27;;
56893;SDS011;43392;50.078;13.704;2022-10-31T08:05:03;43.20;;;25.40;;
56893;SDS011;43392;50.078;13.704;2022-10-31T08:07:35;40.05;;;24.88;;
56893;SDS011;43392;50.078;13.704;2022-10-31T08:10:02;48.83;;;25.60;;
56893;SDS011;43392;50.078;13.704;2022-10-31T08:12:30;39.15;;;23.23;;
56893;SDS011;43392;50.078;13.704;2022-10-31T08:14:57;39.60;;;23.60;;
56893;SDS011;43392;50.078;13.704;2022-10-31T08:17:23;39.28;;;21.90;;
56893;SDS011;43392;50.078;13.704;2022-10-31T08:19:50;37.90;;;22.88;;
56893;SDS011;43392;50.078;13.704;2022-10-31T08:22:16;34.05;;;20.52;;
56893;SDS011;43392;50.078;13.704;2022-10-31T08:24:44;37.40;;;23.48;;
56893;SDS011;43392;50.078;13.704;2022-10-31T08:27:11;36.35;;;20.77;;
56893;SDS011;43392;50.078;13.704;2022-10-31T08:29:37;40.60;;;21.90;;
56893;SDS011;43392;50.078;13.704;2022-10-31T08:32:04;39.53;;;22.05;;
56893;SDS011;43392;50.078;13.704;2022-10-31T08:34:31;45.83;;;21.80;;
56893;SDS011;43392;50.078;13.704;2022-10-31T08:36:57;39.53;;;21.25;;
56893;SDS011;43392;50.078;13.704;2022-10-31T08:39:24;32.67;;;19.35;;
56893;SDS011;43392;50.078;13.704;2022-10-31T08:41:52;29.23;;;19.30;;
56893;SDS011;43392;50.078;13.704;2022-10-31T08:44:18;40.60;;;20.05;;
56893;SDS011;43392;50.078;13.704;2022-10-31T08:46:45;28.52;;;16.85;;
56893;SDS011;43392;50.078;13.704;2022-10-31T08:49:12;28.45;;;16.65;;
56893;SDS011;43392;50.078;13.704;2022-10-31T08:51:38;26.92;;;16.05;;
56893;SDS011;43392;50.078;13.704;2022-10-31T08:54:05;31.25;;;16.83;;
56893;SDS011;43392;50.078;13.704;2022-10-31T08:56:31;34.08;;;18.20;;
56893;SDS011;43392;50.078;13.704;2022-10-31T08:58:59;30.27;;;16.88;;
56893;SDS011;43392;50.078;13.704;2022-10-31T09:01:26;33.17;;;17.60;;
56893;SDS011;43392;50.078;13.704;2022-10-31T09:03:53;35.30;;;17.70;;
56893;SDS011;43392;50.078;13.704;2022-10-31T09:06:19;29.23;;;16.00;;
56893;SDS011;43392;50.078;13.704;2022-10-31T09:08:46;25.10;;;15.23;;
56893;SDS011;43392;50.078;13.704;2022-10-31T09:11:12;27.77;;;15.20;;
56893;SDS011;43392;50.078;13.704;2022-10-31T09:13:39;28.38;;;14.70;;
56893;SDS011;43392;50.078;13.704;2022-10-31T09:16:07;33.53;;;17.38;;
56893;SDS011;43392;50.078;13.704;2022-10-31T09:18:34;35.40;;;18.58;;
56893;SDS011;43392;50.078;13.704;2022-10-31T09:21:01;37.10;;;19.92;;
56893;SDS011;43392;50.078;13.704;2022-10-31T09:23:27;39.75;;;19.42;;
56893;SDS011;43392;50.078;13.704;2022-10-31T09:25:54;33.03;;;17.80;;
56893;SDS011;43392;50.078;13.704;2022-10-31T09:28:22;40.70;;;20.92;;
56893;SDS011;43392;50.078;13.704;2022-10-31T09:30:50;61.40;;;27.90;;
56893;SDS011;43392;50.078;13.704;2022-10-31T09:33:19;46.53;;;21.58;;
56893;SDS011;43392;50.078;13.704;2022-10-31T09:35:47;45.72;;;22.35;;
56893;SDS011;43392;50.078;13.704;2022-10-31T09:38:14;40.88;;;22.38;;
56893;SDS011;43392;50.078;13.704;2022-10-31T09:40:44;33.92;;;19.30;;
56893;SDS011;43392;50.078;13.704;2022-10-31T09:43:14;33.13;;;21.40;;
56893;SDS011;43392;50.078;13.704;2022-10-31T09:45:52;38.88;;;21.55;;
56893;SDS011;43392;50.078;13.704;2022-10-31T09:51:16;41.28;;;24.13;;
56893;SDS011;43392;50.078;13.704;2022-10-31T09:53:47;45.42;;;24.98;;
56893;SDS011;43392;50.078;13.704;2022-10-31T09:56:18;42.25;;;24.05;;
56893;SDS011;43392;50.078;13.704;2022-10-31T09:58:47;49.83;;;31.20;;
56893;SDS011;43392;50.078;13.704;2022-10-31T10:01:19;42.13;;;28.17;;
56893;SDS011;43392;50.078;13.704;2022-10-31T10:03:57;52.83;;;33.13;;
56893;SDS011;43392;50.078;13.704;2022-10-31T10:06:28;61.55;;;38.42;;
56893;SDS011;43392;50.078;13.704;2022-10-31T10:08:58;58.03;;;33.75;;
56893;SDS011;43392;50.078;13.704;2022-10-31T10:11:35;55.38;;;35.10;;
56893;SDS011;43392;50.078;13.704;2022-10-31T10:14:20;59.90;;;36.80;;
56893;SDS011;43392;50.078;13.704;2022-10-31T10:16:58;52.40;;;33.92;;
56893;SDS011;43392;50.078;13.704;2022-10-31T10:19:41;59.60;;;33.30;;
56893;SDS011;43392;50.078;13.704;2022-10-31T10:22:21;55.40;;;32.10;;
56893;SDS011;43392;50.078;13.704;2022-10-31T10:24:59;52.28;;;30.60;;
56893;SDS011;43392;50.078;13.704;2022-10-31T10:27:41;47.92;;;27.80;;
56893;SDS011;43392;50.078;13.704;2022-10-31T10:30:16;47.92;;;26.48;;
56893;SDS011;43392;50.078;13.704;2022-10-31T10:32:45;45.50;;;26.00;;
56893;SDS011;43392;50.078;13.704;2022-10-31T10:35:19;45.67;;;25.25;;
56893;SDS011;43392;50.078;13.704;2022-10-31T10:37:51;34.85;;;23.88;;
56893;SDS011;43392;50.078;13.704;2022-10-31T10:40:22;37.90;;;20.42;;
56893;SDS011;43392;50.078;13.704;2022-10-31T10:42:53;40.35;;;19.90;;
56893;SDS011;43392;50.078;13.704;2022-10-31T10:45:47;33.63;;;18.33;;
56893;SDS011;43392;50.078;13.704;2022-10-31T10:48:37;33.78;;;18.70;;
56893;SDS011;43392;50.078;13.704;2022-10-31T10:51:10;35.33;;;18.25;;
56893;SDS011;43392;50.078;13.704;2022-10-31T10:53:48;36.95;;;16.30;;
56893;SDS011;43392;50.078;13.704;2022-10-31T10:56:36;33.13;;;17.50;;
56893;SDS011;43392;50.078;13.704;2022-10-31T10:59:08;34.53;;;15.18;;
56893;SDS011;43392;50.078;13.704;2022-10-31T11:01:38;27.90;;;14.18;;
56893;SDS011;43392;50.078;13.704;2022-10-31T11:04:09;28.48;;;13.00;;
56893;SDS011;43392;50.078;13.704;2022-10-31T11:06:57;23.02;;;12.82;;
56893;SDS011;43392;50.078;13.704;2022-10-31T11:09:25;25.85;;;13.52;;
56893;SDS011;43392;50.078;13.704;2022-10-31T11:11:52;27.42;;;11.82;;
56893;SDS011;43392;50.078;13.704;2022-10-31T11:14:20;24.48;;;12.13;;
56893;SDS011;43392;50.078;13.704;2022-10-31T11:16:48;27.80;;;12.18;;
56893;SDS011;43392;50.078;13.704;2022-10-31T11:19:18;20.98;;;10.80;;
56893;SDS011;43392;50.078;13.704;2022-10-31T11:21:47;25.42;;;11.15;;
56893;SDS011;43392;50.078;13.704;2022-10-31T11:24:17;24.77;;;11.77;;
56893;SDS011;43392;50.078;13.704;2022-10-31T11:26:45;21.35;;;9.27;;
56893;SDS011;43392;50.078;13.704;2022-10-31T11:29:15;18.92;;;9.63;;
56893;SDS011;43392;50.078;13.704;2022-10-31T11:31:43;17.75;;;9.45;;
56893;SDS011;43392;50.078;13.704;2022-10-31T11:34:24;21.98;;;9.30;;
56893;SDS011;43392;50.078;13.704;2022-10-31T11:36:56;21.13;;;9.48;;
56893;SDS011;43392;50.078;13.704;2022-10-31T11:39:30;18.45;;;8.25;;
56893;SDS011;43392;50.078;13.704;2022-10-31T11:41:59;19.02;;;8.32;;
56893;SDS011;43392;50.078;13.704;2022-10-31T11:44:28;15.52;;;7.93;;
56893;SDS011;43392;50.078;13.704;2022-10-31T11:46:58;20.17;;;6.78;;
56893;SDS011;43392;50.078;13.704;2022-10-31T11:49:28;13.00;;;5.25;;
56893;SDS011;43392;50.078;13.704;2022-10-31T11:51:58;14.77;;;5.93;;
56893;SDS011;43392;50.078;13.704;2022-10-31T11:54:28;11.38;;;4.70;;
56893;SDS011;43392;50.078;13.704;2022-10-31T11:57:02;14.82;;;4.95;;
56893;SDS011;43392;50.078;13.704;2022-10-31T11:59:29;14.95;;;5.13;;
56893;SDS011;43392;50.078;13.704;2022-10-31T12:01:58;13.48;;;4.97;;
56893;SDS011;43392;50.078;13.704;2022-10-31T12:04:28;15.98;;;4.95;;
56893;SDS011;43392;50.078;13.704;2022-10-31T12:06:59;11.20;;;5.20;;
56893;SDS011;43392;50.078;13.704;2022-10-31T12:09:27;10.63;;;4.47;;
56893;SDS011;43392;50.078;13.704;2022-10-31T12:12:03;10.95;;;4.45;;
56893;SDS011;43392;50.078;13.704;2022-10-31T12:14:59;14.07;;;5.28;;
56893;SDS011;43392;50.078;13.704;2022-10-31T12:17:36;11.85;;;4.45;;
56893;SDS011;43392;50.078;13.704;2022-10-31T12:20:12;16.00;;;5.10;;
56893;SDS011;43392;50.078;13.704;2022-10-31T12:22:51;13.85;;;5.05;;
56893;SDS011;43392;50.078;13.704;2022-10-31T12:25:28;14.65;;;5.25;;
56893;SDS011;43392;50.078;13.704;2022-10-31T12:28:10;9.82;;;4.45;;
56893;SDS011;43392;50.078;13.704;2022-10-31T12:30:58;14.23;;;5.10;;
56893;SDS011;43392;50.078;13.704;2022-10-31T12:33:37;10.10;;;4.55;;
56893;SDS011;43392;50.078;13.704;2022-10-31T12:36:32;13.57;;;5.03;;
56893;SDS011;43392;50.078;13.704;2022-10-31T12:39:14;13.25;;;5.03;;
56893;SDS011;43392;50.078;13.704;2022-10-31T12:41:51;13.32;;;5.20;;
56893;SDS011;43392;50.078;13.704;2022-10-31T12:44:34;14.68;;;6.78;;
56893;SDS011;43392;50.078;13.704;2022-10-31T12:47:30;12.63;;;4.75;;
56893;SDS011;43392;50.078;13.704;2022-10-31T12:50:12;13.70;;;6.85;;
56893;SDS011;43392;50.078;13.704;2022-10-31T12:52:51;16.35;;;6.55;;
56893;SDS011;43392;50.078;13.704;2022-10-31T12:55:35;13.25;;;7.20;;
56893;SDS011;43392;50.078;13.704;2022-10-31T12:58:08;12.32;;;5.40;;
56893;SDS011;43392;50.078;13.704;2022-10-31T13:00:42;12.95;;;5.93;;
56893;SDS011;43392;50.078;13.704;2022-10-31T13:03:19;11.80;;;5.05;;
56893;SDS011;43392;50.078;13.704;2022-10-31T13:05:51;11.38;;;5.55;;
56893;SDS011;43392;50.078;13.704;2022-10-31T13:08:24;15.52;;;5.35;;
56893;SDS011;43392;50.078;13.704;2022-10-31T13:10:55;11.73;;;5.50;;
56893;SDS011;43392;50.078;13.704;2022-10-31T13:13:33;15.52;;;5.63;;
56893;SDS011;43392;50.078;13.704;2022-10-31T13:16:07;15.05;;;5.70;;
56893;SDS011;43392;50.078;13.704;2022-10-31T13:18:40;12.10;;;4.75;;
56893;SDS011;43392;50.078;13.704;2022-10-31T13:21:11;15.55;;;5.97;;
56893;SDS011;43392;50.078;13.704;2022-10-31T13:23:42;11.85;;;5.25;;
56893;SDS011;43392;50.078;13.704;2022-10-31T13:26:12;12.10;;;5.50;;
56893;SDS011;43392;50.078;13.704;2022-10-31T13:28:44;11.27;;;5.60;;
56893;SDS011;43392;50.078;13.704;2022-10-31T13:31:15;12.25;;;5.82;;
56893;SDS011;43392;50.078;13.704;2022-10-31T13:33:42;16.33;;;5.65;;
56893;SDS011;43392;50.078;13.704;2022-10-31T13:36:15;12.50;;;5.78;;
56893;SDS011;43392;50.078;13.704;2022-10-31T13:38:48;12.38;;;5.22;;
56893;SDS011;43392;50.078;13.704;2022-10-31T13:41:21;14.05;;;7.00;;
56893;SDS011;43392;50.078;13.704;2022-10-31T13:43:59;17.92;;;7.90;;
56893;SDS011;43392;50.078;13.704;2022-10-31T13:46:35;14.18;;;5.93;;
56893;SDS011;43392;50.078;13.704;2022-10-31T13:49:03;12.50;;;5.43;;
56893;SDS011;43392;50.078;13.704;2022-10-31T13:51:31;13.32;;;5.55;;
56893;SDS011;43392;50.078;13.704;2022-10-31T13:54:01;16.02;;;5.55;;
56893;SDS011;43392;50.078;13.704;2022-10-31T13:56:33;11.55;;;5.60;;
56893;SDS011;43392;50.078;13.704;2022-10-31T13:59:10;10.70;;;5.97;;
56893;SDS011;43392;50.078;13.704;2022-10-31T14:01:50;12.75;;;5.75;;
56893;SDS011;43392;50.078;13.704;2022-10-31T14:04:20;14.30;;;5.72;;
56893;SDS011;43392;50.078;13.704;2022-10-31T14:06:52;12.38;;;5.57;;
56893;SDS011;43392;50.078;13.704;2022-10-31T14:09:30;12.85;;;5.88;;
56893;SDS011;43392;50.078;13.704;2022-10-31T14:12:00;12.82;;;5.97;;
56893;SDS011;43392;50.078;13.704;2022-10-31T14:14:32;13.00;;;6.10;;
56893;SDS011;43392;50.078;13.704;2022-10-31T14:17:03;11.27;;;5.70;;
56893;SDS011;43392;50.078;13.704;2022-10-31T14:19:31;14.98;;;5.80;;
56893;SDS011;43392;50.078;13.704;2022-10-31T14:21:57;12.68;;;5.95;;
56893;SDS011;43392;50.078;13.704;2022-10-31T14:24:31;15.30;;;7.35;;
56893;SDS011;43392;50.078;13.704;2022-10-31T14:27:03;16.92;;;6.95;;
56893;SDS011;43392;50.078;13.704;2022-10-31T14:29:50;29.05;;;11.82;;
56893;SDS011;43392;50.078;13.704;2022-10-31T14:32:20;16.30;;;8.68;;
56893;SDS011;43392;50.078;13.704;2022-10-31T14:34:52;13.23;;;6.07;;
56893;SDS011;43392;50.078;13.704;2022-10-31T14:40:18;13.52;;;6.10;;
56893;SDS011;43392;50.078;13.704;2022-10-31T14:42:58;11.50;;;5.72;;
56893;SDS011;43392;50.078;13.704;2022-10-31T14:45:39;14.57;;;6.40;;